Time;durP1;ratioP1;P1;durP2;ratioP2;P2;SDS_P1;SDS_P2;PMS_P1;PMS_P2;Temp;Humidity;BMP_temperature;BMP_pressure;BME280_temperature;BME280_humidity;BME280_pressure;Samples;Min_cycle;Max_cycle;Signal;HPM_P1;HPM_P2
2021/10/10 00:00:52;;;;;;;2.80;2.60;;;;;;;9.36;100.00;95563.38;5089681;28;20217;-78
2021/10/10 00:03:20;;;;;;;3.63;2.90;;;;;;;9.38;100.00;95563.28;5089403;28;20445;-77
2021/10/10 00:05:47;;;;;;;3.00;2.80;;;;;;;9.41;100.00;95557.81;5089426;28;20444;-77
2021/10/10 00:08:14;;;;;;;3.13;2.83;;;;;;;9.38;100.00;95560.66;5089293;28;20524;-77
2021/10/10 00:10:41;;;;;;;3.27;2.97;;;;;;;9.25;100.00;95553.66;5070471;28;20425;-78
2021/10/10 00:13:08;;;;;;;2.77;2.60;;;;;;;9.36;100.00;95558.13;5141139;27;20844;-78
2021/10/10 00:15:35;;;;;;;2.70;2.37;;;;;;;9.28;100.00;95569.16;5089119;28;20445;-77
2021/10/10 00:18:02;;;;;;;3.50;3.23;;;;;;;9.27;100.00;95559.63;5089360;28;20916;-77
2021/10/10 00:20:30;;;;;;;2.30;2.10;;;;;;;9.25;100.00;95558.88;5089702;28;20436;-77
2021/10/10 00:22:57;;;;;;;2.50;2.30;;;;;;;9.35;100.00;95556.47;5070091;28;20447;-77
2021/10/10 00:25:24;;;;;;;2.60;2.37;;;;;;;9.37;100.00;95554.56;5089066;28;20444;-78
2021/10/10 00:27:51;;;;;;;3.30;1.90;;;;;;;9.39;100.00;95551.84;5089220;28;20441;-77
2021/10/10 00:30:20;;;;;;;4.03;2.47;;;;;;;9.38;100.00;95561.50;5091387;28;20440;-78
2021/10/10 00:32:47;;;;;;;6.53;2.60;;;;;;;9.30;100.00;95558.56;5092380;28;20476;-77
2021/10/10 00:35:15;;;;;;;3.10;2.80;;;;;;;9.30;100.00;95561.19;5144159;27;20978;-77
2021/10/10 00:37:43;;;;;;;2.33;2.23;;;;;;;9.27;100.00;95548.31;5092098;28;20476;-78
2021/10/10 00:40:11;;;;;;;3.77;3.20;;;;;;;9.37;100.00;95548.50;5092435;28;20440;-77
2021/10/10 00:42:38;;;;;;;2.13;1.97;;;;;;;9.35;100.00;95547.78;5040171;28;20447;-77
2021/10/10 00:45:06;;;;;;;2.57;2.37;;;;;;;9.37;100.00;95538.84;5092369;28;20448;-78
2021/10/10 00:47:33;;;;;;;2.30;2.10;;;;;;;9.45;100.00;95546.19;5092321;28;20440;-78
2021/10/10 00:50:00;;;;;;;2.30;2.10;;;;;;;9.58;100.00;95545.22;5092149;28;20449;-77
2021/10/10 00:52:28;;;;;;;2.50;2.30;;;;;;;9.51;100.00;95541.34;5092102;28;20830;-77
2021/10/10 00:54:59;;;;;;;1.90;1.80;;;;;;;9.60;100.00;95545.94;5092025;28;20440;-78
2021/10/10 00:57:27;;;;;;;2.07;1.97;;;;;;;9.51;100.00;95545.75;5092092;27;20440;-77
2021/10/10 00:59:58;;;;;;;2.40;1.80;;;;;;;9.54;100.00;95535.03;5092585;28;20436;-77
2021/10/10 01:02:25;;;;;;;2.27;2.13;;;;;;;9.52;100.00;95535.16;5092005;27;20844;-77
2021/10/10 01:04:52;;;;;;;1.80;1.70;;;;;;;9.47;100.00;95539.03;5092315;28;20473;-77
2021/10/10 01:07:20;;;;;;;1.60;1.50;;;;;;;9.43;100.00;95530.56;5091883;27;20470;-77
2021/10/10 01:09:47;;;;;;;2.00;1.90;;;;;;;9.47;100.00;95531.19;5091783;27;20448;-78
2021/10/10 01:12:16;;;;;;;3.10;2.00;;;;;;;9.43;100.00;95532.34;5091847;28;20444;-77
2021/10/10 01:14:43;;;;;;;2.23;1.87;;;;;;;9.47;100.00;95539.03;5091646;28;20443;-77
2021/10/10 01:17:10;;;;;;;1.97;1.87;;;;;;;9.39;100.00;95529.09;5056537;27;20815;-78
2021/10/10 01:19:39;;;;;;;2.20;1.80;;;;;;;9.47;100.00;95529.41;5091990;28;20810;-77
2021/10/10 01:22:07;;;;;;;1.83;1.73;;;;;;;9.43;100.00;95520.09;5091558;27;20449;-77
2021/10/10 01:24:34;;;;;;;2.10;2.00;;;;;;;9.49;100.00;95524.06;5091942;28;20448;-77
2021/10/10 01:27:01;;;;;;;1.80;1.70;;;;;;;9.47;100.00;95525.94;5091827;28;20449;-78
2021/10/10 01:29:28;;;;;;;1.80;1.70;;;;;;;9.47;100.00;95520.72;5073024;28;20466;-78
2021/10/10 01:31:55;;;;;;;1.80;1.60;;;;;;;9.47;100.00;95524.16;5091594;28;20441;-77
2021/10/10 01:34:22;;;;;;;1.87;1.77;;;;;;;9.62;100.00;95522.25;5091437;28;20490;-78
2021/10/10 01:36:49;;;;;;;1.57;1.47;;;;;;;9.68;100.00;95520.97;5091983;28;20475;-78
2021/10/10 01:39:17;;;;;;;1.60;1.50;;;;;;;9.70;100.00;95522.53;5091380;28;20447;-77
2021/10/10 01:41:44;;;;;;;2.33;1.93;;;;;;;9.71;100.00;95515.53;5091059;28;20949;-78
2021/10/10 01:44:14;;;;;;;1.80;1.70;;;;;;;9.82;100.00;95516.41;5091491;28;20448;-77
2021/10/10 01:46:41;;;;;;;1.60;1.50;;;;;;;9.76;100.00;95524.72;5091384;27;20445;-77
2021/10/10 01:49:09;;;;;;;1.50;1.40;;;;;;;9.70;100.00;95522.53;5072726;28;20448;-77
2021/10/10 01:51:37;;;;;;;1.43;1.33;;;;;;;9.71;100.00;95516.34;5091293;28;20970;-77
2021/10/10 01:54:04;;;;;;;2.60;1.40;;;;;;;9.76;100.00;95514.25;5091077;27;20552;-77
2021/10/10 01:56:33;;;;;;;1.50;1.40;;;;;;;9.84;100.00;95526.81;5091218;28;20447;-78
2021/10/10 01:59:00;;;;;;;1.80;1.63;;;;;;;9.92;100.00;95514.81;5091370;28;20448;-78
2021/10/10 02:01:26;;;;;;;4.53;3.20;;;;;;;10.08;100.00;95527.63;5091272;28;20444;-77
2021/10/10 02:03:53;;;;;;;1.50;1.40;;;;;;;10.09;100.00;95525.84;5091235;28;20437;-77
2021/10/10 02:06:20;;;;;;;4.50;4.20;;;;;;;10.22;100.00;95535.38;5091072;28;20446;-77
2021/10/10 02:08:47;;;;;;;2.10;2.00;;;;;;;10.21;100.00;95532.88;5091278;27;20444;-77
2021/10/10 02:11:14;;;;;;;2.13;2.03;;;;;;;10.30;100.00;95540.06;5091090;28;20456;-78
2021/10/10 02:13:42;;;;;;;1.70;1.60;;;;;;;10.30;100.00;95534.81;5091325;28;20476;-78
2021/10/10 02:16:09;;;;;;;2.63;1.80;;;;;;;10.12;100.00;95542.22;5090774;28;20453;-77
2021/10/10 02:18:36;;;;;;;1.90;1.37;;;;;;;10.27;100.00;95536.84;5055630;28;20444;-77
2021/10/10 02:21:03;;;;;;;2.07;1.97;;;;;;;10.20;100.00;95528.56;5091423;28;20448;-78
2021/10/10 02:23:30;;;;;;;1.50;1.40;;;;;;;10.15;100.00;95523.66;5090854;27;20444;-78
2021/10/10 02:25:57;;;;;;;1.83;1.73;;;;;;;10.13;100.00;95535.19;5090632;28;20444;-77
2021/10/10 02:28:24;;;;;;;2.43;2.20;;;;;;;9.97;100.00;95532.84;5090853;28;20441;-77
2021/10/10 02:30:53;;;;;;;1.93;1.70;;;;;;;10.01;100.00;95528.22;5090515;28;20450;-77
2021/10/10 02:33:19;;;;;;;1.63;1.53;;;;;;;10.08;100.00;95535.50;5090975;28;20484;-78
2021/10/10 02:35:46;;;;;;;1.60;1.50;;;;;;;10.00;100.00;95540.47;5072117;28;20477;-77
2021/10/10 02:38:14;;;;;;;1.43;1.33;;;;;;;10.03;100.00;95542.03;5090615;28;20446;-78
2021/10/10 02:40:41;;;;;;;1.40;1.30;;;;;;;10.04;100.00;95535.84;5090478;27;20991;-77
2021/10/10 02:43:07;;;;;;;1.85;1.70;;;;;;;10.02;100.00;95529.88;5090160;28;20433;-77
2021/10/10 02:45:35;;;;;;;1.90;1.80;;;;;;;9.96;100.00;95530.31;5090769;28;20235;-77
2021/10/10 02:48:03;;;;;;;1.87;1.77;;;;;;;9.94;100.00;95530.44;5090497;28;20524;-77
2021/10/10 02:50:30;;;;;;;1.80;1.70;;;;;;;9.92;100.00;95533.16;5090394;28;20441;-77
2021/10/10 02:52:58;;;;;;;1.83;1.73;;;;;;;9.89;100.00;95525.53;5089707;28;20443;-77
2021/10/10 02:55:25;;;;;;;1.63;1.53;;;;;;;9.90;100.00;95521.97;5090073;28;20496;-77
2021/10/10 02:57:52;;;;;;;5.40;5.00;;;;;;;10.05;100.00;95519.16;5090175;28;20523;-77
2021/10/10 03:00:19;;;;;;;2.20;2.00;;;;;;;10.02;100.00;95519.38;5142287;27;20437;-77
2021/10/10 03:02:46;;;;;;;2.17;2.07;;;;;;;10.05;100.00;95513.91;5089918;28;20451;-77
2021/10/10 03:05:15;;;;;;;1.90;1.80;;;;;;;10.16;100.00;95516.63;5090089;28;20451;-77
2021/10/10 03:07:41;;;;;;;2.60;2.40;;;;;;;10.19;100.00;95513.78;5090129;28;20432;-77
2021/10/10 03:10:09;;;;;;;2.53;2.33;;;;;;;10.21;100.00;95522.38;5089858;27;20441;-77
2021/10/10 03:12:36;;;;;;;2.00;1.90;;;;;;;10.28;100.00;95522.78;5141075;27;20467;-78
2021/10/10 03:15:03;;;;;;;2.30;1.97;;;;;;;10.15;100.00;95523.66;5089684;28;20484;-77
2021/10/10 03:17:30;;;;;;;2.17;2.07;;;;;;;10.21;100.00;95515.34;5071232;28;20437;-77
2021/10/10 03:19:57;;;;;;;1.90;1.80;;;;;;;9.90;100.00;95506.22;5089786;28;20440;-77
2021/10/10 03:22:26;;;;;;;2.10;1.90;;;;;;;9.93;100.00;95515.66;5089934;28;20445;-78
2021/10/10 03:24:53;;;;;;;2.13;1.80;;;;;;;10.11;100.00;95516.09;5089614;28;20816;-77
2021/10/10 03:27:25;;;;;;;2.47;2.27;;;;;;;10.06;100.00;95526.09;5089794;28;20447;-78
2021/10/10 03:29:52;;;;;;;2.57;2.37;;;;;;;10.11;100.00;95530.03;5089839;28;20444;-78
2021/10/10 03:32:19;;;;;;;2.47;2.27;;;;;;;10.10;100.00;95525.75;5089698;28;20451;-77
2021/10/10 03:34:46;;;;;;;2.87;2.67;;;;;;;10.16;100.00;95521.88;5089589;28;20490;-78
2021/10/10 03:37:12;;;;;;;2.23;2.03;;;;;;;10.23;100.00;95520.50;5070703;28;20517;-77
2021/10/10 03:39:41;;;;;;;2.77;2.57;;;;;;;10.28;100.00;95515.75;5070722;28;20444;-77
2021/10/10 03:42:08;;;;;;;2.33;2.07;;;;;;;10.31;100.00;95519.91;5089801;28;20443;-78
2021/10/10 03:44:35;;;;;;;2.33;2.13;;;;;;;10.35;100.00;95522.19;5089720;27;20927;-77
2021/10/10 03:47:02;;;;;;;2.37;2.17;;;;;;;10.39;100.00;95523.63;5089841;28;20449;-78
2021/10/10 03:49:28;;;;;;;2.17;2.07;;;;;;;10.52;100.00;95529.66;5089466;28;20449;-77
2021/10/10 03:51:55;;;;;;;2.10;2.00;;;;;;;10.50;100.00;95528.13;5089524;28;20466;-77
2021/10/10 03:55:06;;;;;;;1.93;1.83;;;;;;;10.51;100.00;95525.38;5089530;28;20494;-78
2021/10/10 03:57:35;;;;;;;33.50;28.57;;;;;;;10.52;100.00;95528.84;5089694;28;20449;-77
2021/10/10 04:00:04;;;;;;;10.30;9.30;;;;;;;10.63;100.00;95525.41;5089431;28;20444;-77
2021/10/10 04:02:31;;;;;;;4.77;3.80;;;;;;;10.71;100.00;95512.56;5089381;28;20537;-77
2021/10/10 04:05:00;;;;;;;2.70;2.50;;;;;;;10.73;100.00;95521.16;5093069;28;20440;-77
2021/10/10 04:07:26;;;;;;;2.30;2.10;;;;;;;10.66;100.00;95525.16;5092713;28;20803;-77
2021/10/10 04:09:53;;;;;;;3.23;2.50;;;;;;;10.74;100.00;95523.66;5093164;28;20448;-77
2021/10/10 04:12:20;;;;;;;2.37;1.90;;;;;;;10.72;100.00;95516.84;5092854;27;20451;-77
2021/10/10 04:14:49;;;;;;;1.90;1.80;;;;;;;10.77;100.00;95512.09;5093064;28;20982;-77
2021/10/10 04:17:16;;;;;;;1.90;1.80;;;;;;;10.84;100.00;95523.78;5092679;28;20957;-77
2021/10/10 04:19:42;;;;;;;2.70;2.20;;;;;;;10.85;100.00;95517.59;5092838;28;20437;-77
2021/10/10 04:22:09;;;;;;;1.83;1.73;;;;;;;10.88;100.00;95514.72;5092964;28;20444;-78
2021/10/10 04:24:36;;;;;;;1.80;1.70;;;;;;;10.89;100.00;95519.03;5092707;28;20483;-77
2021/10/10 04:27:04;;;;;;;1.97;1.87;;;;;;;10.93;100.00;95517.84;5092682;28;20450;-77
2021/10/10 04:29:30;;;;;;;2.50;2.30;;;;;;;10.81;100.00;95508.28;5092499;28;20441;-78
2021/10/10 04:31:59;;;;;;;2.50;2.30;;;;;;;10.91;100.00;95509.25;5092493;28;20787;-77
2021/10/10 04:34:26;;;;;;;2.17;1.90;;;;;;;10.95;100.00;95515.09;5092556;28;20484;-81
2021/10/10 04:36:53;;;;;;;2.40;2.20;;;;;;;10.99;100.00;95520.00;5093501;28;20476;-81
2021/10/10 04:39:19;;;;;;;1.83;1.73;;;;;;;11.01;100.00;95518.09;5093106;28;20440;-77
2021/10/10 04:41:46;;;;;;;2.10;2.00;;;;;;;11.01;100.00;95519.91;5092948;28;20440;-77
2021/10/10 04:44:13;;;;;;;2.23;2.13;;;;;;;11.06;100.00;95523.00;5092497;28;20481;-77
2021/10/10 04:46:40;;;;;;;2.63;2.43;;;;;;;11.03;100.00;95521.44;5073961;28;21021;-77
2021/10/10 04:49:08;;;;;;;2.37;2.27;;;;;;;11.04;100.00;95520.50;5092835;28;20447;-77
2021/10/10 04:51:35;;;;;;;4.00;2.00;;;;;;;11.04;100.00;95525.75;5092755;28;20451;-77
2021/10/10 04:54:02;;;;;;;2.20;2.00;;;;;;;11.06;100.00;95525.63;5092711;28;20488;-77
2021/10/10 04:56:29;;;;;;;4.97;4.67;;;;;;;11.09;100.00;95523.59;5092588;28;20451;-77
2021/10/10 04:58:56;;;;;;;3.10;2.90;;;;;;;11.08;100.00;95511.41;5092343;28;20440;-78
2021/10/10 05:01:23;;;;;;;4.07;3.63;;;;;;;10.96;100.00;95522.00;5092645;28;20436;-78
2021/10/10 05:03:50;;;;;;;5.00;4.50;;;;;;;11.05;100.00;95521.34;5092701;28;20977;-77
2021/10/10 05:06:18;;;;;;;4.00;3.70;;;;;;;11.08;100.00;95529.81;5057252;27;20459;-77
2021/10/10 05:08:45;;;;;;;3.20;3.00;;;;;;;11.06;100.00;95529.09;5092355;28;20451;-77
2021/10/10 05:11:12;;;;;;;6.50;3.40;;;;;;;11.09;100.00;95528.00;5080427;28;20473;-77
2021/10/10 05:13:39;;;;;;;6.47;3.77;;;;;;;11.08;100.00;95534.22;5071525;28;20810;-77
2021/10/10 05:16:06;;;;;;;16.83;8.03;;;;;;;10.95;100.00;95528.22;5071723;28;20456;-78
2021/10/10 05:18:33;;;;;;;13.93;7.40;;;;;;;10.81;100.00;95530.13;5072151;28;20452;-77
2021/10/10 05:21:00;;;;;;;10.63;7.13;;;;;;;10.86;100.00;95542.88;5072049;28;20449;-77
2021/10/10 05:23:28;;;;;;;11.40;8.23;;;;;;;10.85;100.00;95533.34;5071911;28;20468;-77
2021/10/10 05:25:55;;;;;;;10.50;7.40;;;;;;;10.78;100.00;95524.25;5071862;28;20441;-77
2021/10/10 05:28:22;;;;;;;18.20;11.70;;;;;;;10.70;100.00;95530.09;5122999;27;20441;-77
2021/10/10 05:30:51;;;;;;;6.10;4.80;;;;;;;10.54;100.00;95538.25;5071739;28;20448;-76
2021/10/10 05:33:18;;;;;;;10.43;7.83;;;;;;;10.30;100.00;95536.59;5071091;28;20446;-77
2021/10/10 05:35:45;;;;;;;6.80;6.20;;;;;;;10.31;100.00;95535.66;5071020;28;20497;-77
2021/10/10 05:38:12;;;;;;;3.63;3.40;;;;;;;10.16;100.00;95534.97;5071488;28;20514;-77
2021/10/10 05:40:40;;;;;;;2.80;2.70;;;;;;;10.11;100.00;95537.06;5071304;28;20450;-77
2021/10/10 05:43:08;;;;;;;5.33;3.87;;;;;;;10.00;100.00;95531.78;5071287;28;20442;-77
2021/10/10 05:45:34;;;;;;;6.73;3.97;;;;;;;10.01;100.00;95536.91;5035762;28;20940;-78
2021/10/10 05:48:01;;;;;;;23.57;6.70;;;;;;;9.93;100.00;95537.47;5070905;28;20445;-77
2021/10/10 05:50:28;;;;;;;4.93;4.53;;;;;;;9.92;100.00;95546.28;5071296;28;20452;-77
2021/10/10 05:52:55;;;;;;;8.30;2.67;;;;;;;9.96;100.00;95548.69;5070771;28;20967;-77
2021/10/10 05:55:24;;;;;;;4.03;2.83;;;;;;;10.00;100.00;95547.50;5122374;27;20477;-76
2021/10/10 05:57:52;;;;;;;7.00;5.70;;;;;;;10.12;100.00;95544.84;5070832;28;20559;-76
2021/10/10 06:00:21;;;;;;;15.17;6.20;;;;;;;10.21;100.00;95543.38;5070817;28;20441;-76
2021/10/10 06:02:48;;;;;;;11.53;6.90;;;;;;;10.11;100.00;95542.31;5070736;28;20452;-77
2021/10/10 06:05:16;;;;;;;11.87;7.23;;;;;;;10.08;100.00;95545.16;5035965;28;20446;-76
2021/10/10 06:07:43;;;;;;;7.47;5.10;;;;;;;10.06;100.00;95547.91;5070588;28;20803;-76
2021/10/10 06:10:10;;;;;;;7.10;5.60;;;;;;;10.05;100.00;95545.38;5070582;28;20449;-76
2021/10/10 06:12:39;;;;;;;7.17;5.70;;;;;;;10.07;100.00;95551.34;5079766;27;20947;-77
2021/10/10 06:15:09;;;;;;;6.60;5.00;;;;;;;10.08;100.00;95535.50;5176387;27;20940;-76
2021/10/10 06:17:36;;;;;;;4.50;3.50;;;;;;;10.08;100.00;95542.53;5176168;27;20437;-76
2021/10/10 06:20:06;;;;;;;4.40;4.00;;;;;;;10.09;100.00;95549.47;5176152;27;20437;-76
2021/10/10 06:22:33;;;;;;;4.73;3.50;;;;;;;10.05;100.00;95546.22;5176315;27;20967;-75
2021/10/10 06:25:00;;;;;;;3.80;3.50;;;;;;;10.09;100.00;95536.34;5176357;27;20452;-77
2021/10/10 06:27:27;;;;;;;3.60;3.07;;;;;;;10.23;100.00;95549.34;5175381;27;20444;-76
2021/10/10 06:29:54;;;;;;;4.53;4.13;;;;;;;10.20;100.00;95557.41;5175919;27;20437;-76
2021/10/10 06:32:22;;;;;;;3.40;3.10;;;;;;;10.13;100.00;95545.69;5098324;27;20533;-76
2021/10/10 06:34:50;;;;;;;4.50;4.10;;;;;;;10.01;100.00;95554.44;5065789;27;20513;-76
2021/10/10 06:37:17;;;;;;;3.47;3.17;;;;;;;10.04;100.00;95541.09;5050680;28;20830;-76
2021/10/10 06:39:44;;;;;;;3.83;3.53;;;;;;;10.16;100.00;95542.84;5069089;27;20912;-76
2021/10/10 06:42:11;;;;;;;4.07;3.33;;;;;;;10.24;100.00;95545.78;5070461;28;20441;-76
2021/10/10 06:44:38;;;;;;;3.80;3.50;;;;;;;10.04;100.00;95543.72;5035570;28;20449;-76
2021/10/10 06:47:05;;;;;;;4.30;3.80;;;;;;;10.03;100.00;95553.38;5070559;28;20448;-76
2021/10/10 06:49:33;;;;;;;5.67;3.80;;;;;;;10.02;100.00;95546.44;5070665;27;20529;-76
2021/10/10 06:52:01;;;;;;;5.43;4.93;;;;;;;10.13;100.00;95543.06;5035517;28;20445;-76
2021/10/10 06:54:27;;;;;;;5.10;4.80;;;;;;;10.13;100.00;95548.31;5070379;28;20491;-77
2021/10/10 06:56:54;;;;;;;4.43;4.13;;;;;;;10.18;100.00;95554.06;5070466;28;20467;-76
2021/10/10 06:59:21;;;;;;;4.77;4.37;;;;;;;10.29;100.00;95548.88;5070185;28;20450;-76
2021/10/10 07:01:48;;;;;;;5.13;4.73;;;;;;;10.45;100.00;95544.19;5070053;28;20452;-76
2021/10/10 07:04:15;;;;;;;7.97;7.30;;;;;;;10.59;100.00;95550.19;5035006;28;20429;-76
2021/10/10 07:06:44;;;;;;;4.87;4.27;;;;;;;10.68;100.00;95546.88;5034821;28;20426;-75
2021/10/10 07:09:11;;;;;;;5.40;4.53;;;;;;;10.77;100.00;95549.69;5070108;28;20452;-75
2021/10/10 07:11:39;;;;;;;5.20;4.70;;;;;;;10.84;100.00;95543.00;5069989;28;20453;-75
2021/10/10 07:14:06;;;;;;;5.87;5.20;;;;;;;10.78;100.00;95542.63;5071713;27;20456;-75
2021/10/10 07:16:34;;;;;;;9.97;6.90;;;;;;;10.89;100.00;95552.31;5070245;28;20445;-75
2021/10/10 07:19:01;;;;;;;8.83;6.57;;;;;;;10.89;100.00;95553.16;5120219;27;20450;-75
2021/10/10 07:21:55;;;;;;;10.23;8.77;;;;;;;10.93;100.00;95551.97;5070107;28;20446;-75
2021/10/10 07:27:09;;;;;;;8.30;7.10;;;;;;;10.91;100.00;95560.91;5069867;28;20776;-75
2021/10/10 07:29:36;;;;;;;9.13;5.50;;;;;;;11.03;100.00;95558.22;5069915;28;20931;-75
2021/10/10 07:32:04;;;;;;;4.90;4.50;;;;;;;11.09;100.00;95560.38;5069428;28;20445;-75
2021/10/10 07:34:32;;;;;;;8.60;5.30;;;;;;;11.16;100.00;95550.22;5069905;28;20451;-76
2021/10/10 07:37:03;;;;;;;4.17;3.63;;;;;;;11.09;100.00;95546.41;5070101;28;20517;-76
2021/10/10 07:39:31;;;;;;;4.87;4.47;;;;;;;10.90;100.00;95554.00;5069767;28;20445;-75
2021/10/10 07:42:00;;;;;;;4.03;2.70;;;;;;;10.81;100.00;95566.88;5069780;28;20441;-76
2021/10/10 07:44:30;;;;;;;4.03;3.20;;;;;;;10.65;100.00;95565.47;5069362;28;20932;-75
2021/10/10 07:47:07;;;;;;;2.53;2.43;;;;;;;10.53;100.00;95560.22;5069508;28;20513;-75
2021/10/10 07:49:34;;;;;;;5.13;3.07;;;;;;;10.39;100.00;95570.03;5145087;27;20457;-77
2021/10/10 07:52:02;;;;;;;3.80;2.83;;;;;;;10.49;100.00;95577.13;5175563;27;20920;-76
2021/10/10 07:54:31;;;;;;;10.70;6.00;;;;;;;10.50;100.00;95573.56;5138417;27;20787;-76
2021/10/10 07:56:58;;;;;;;20.07;14.50;;;;;;;10.39;100.00;95576.09;5138716;27;20449;-77
2021/10/10 07:59:25;;;;;;;6.13;5.00;;;;;;;10.41;100.00;95579.50;5165897;27;20445;-77
2021/10/10 08:01:52;;;;;;;11.38;10.18;;;;;;;10.57;100.00;95580.97;5174735;27;20430;-76
2021/10/10 08:04:19;;;;;;;14.33;7.80;;;;;;;10.70;100.00;95571.25;5174584;27;20207;-76
2021/10/10 08:06:47;;;;;;;6.30;5.70;;;;;;;10.88;100.00;95576.91;5174771;27;20475;-76
2021/10/10 08:09:14;;;;;;;5.57;5.07;;;;;;;10.74;100.00;95575.31;5174844;27;20437;-76
2021/10/10 08:11:43;;;;;;;10.90;6.13;;;;;;;10.86;100.00;95577.03;5174931;27;20433;-76
2021/10/10 08:14:11;;;;;;;29.37;9.47;;;;;;;11.02;100.00;95581.97;5174603;27;20440;-76
2021/10/10 08:16:39;;;;;;;12.13;8.17;;;;;;;11.08;100.00;95586.75;5174381;27;20552;-76
2021/10/10 08:19:06;;;;;;;9.97;8.97;;;;;;;11.14;100.00;95591.53;5174591;27;20493;-75
2021/10/10 08:21:33;;;;;;;6.50;6.00;;;;;;;11.22;100.00;95589.16;5174452;27;20465;-75
2021/10/10 08:24:01;;;;;;;11.53;6.20;;;;;;;11.29;100.00;95587.75;5175434;27;20445;-78
2021/10/10 08:26:28;;;;;;;9.23;8.20;;;;;;;11.38;100.00;95586.22;5175330;27;20452;-76
2021/10/10 08:28:57;;;;;;;9.57;5.70;;;;;;;11.43;100.00;95578.81;5175392;27;20449;-76
2021/10/10 08:31:24;;;;;;;6.23;5.30;;;;;;;11.45;100.00;95582.97;5174965;27;20525;-76
2021/10/10 08:33:51;;;;;;;7.40;4.93;;;;;;;11.42;100.00;95593.72;5175165;27;20450;-76
2021/10/10 08:36:19;;;;;;;9.00;7.27;;;;;;;11.41;100.00;95585.97;5174981;27;20827;-77
2021/10/10 08:38:47;;;;;;;10.23;7.10;;;;;;;11.41;100.00;95583.34;5175146;27;20440;-76
2021/10/10 08:41:20;;;;;;;6.80;5.40;;;;;;;11.47;100.00;95575.81;5174978;27;20453;-76
2021/10/10 08:43:48;;;;;;;11.10;8.23;;;;;;;11.47;100.00;95580.22;5175037;27;20530;-76
2021/10/10 08:46:23;;;;;;;16.40;9.60;;;;;;;11.48;100.00;95577.47;5129858;27;21009;-76
2021/10/10 08:48:51;;;;;;;7.67;6.77;;;;;;;11.49;100.00;95570.44;5051616;28;20446;-76
2021/10/10 08:51:18;;;;;;;6.73;6.20;;;;;;;11.49;100.00;95567.81;5087191;28;20448;-76
2021/10/10 08:53:45;;;;;;;15.60;14.20;;;;;;;11.55;100.00;95567.31;5050469;27;20452;-76
2021/10/10 08:56:13;;;;;;;7.10;6.50;;;;;;;11.55;100.00;95569.94;5134212;27;20993;-76
2021/10/10 08:58:43;;;;;;;7.20;6.67;;;;;;;11.53;100.00;95566.59;5085588;28;20930;-76
2021/10/10 09:01:16;;;;;;;8.30;7.50;;;;;;;11.51;100.00;95565.06;5085848;28;20464;-77
2021/10/10 09:03:49;;;;;;;10.43;7.70;;;;;;;11.44;100.00;95557.66;5121088;27;20477;-77
2021/10/10 09:06:16;;;;;;;5.17;4.67;;;;;;;11.43;100.00;95558.63;5072265;28;20441;-76
2021/10/10 09:08:43;;;;;;;5.93;5.43;;;;;;;11.43;100.00;95558.63;5072317;28;20524;-77
2021/10/10 09:11:11;;;;;;;9.07;8.10;;;;;;;11.46;100.00;95552.28;5052207;28;20442;-77
2021/10/10 09:13:41;;;;;;;8.17;6.50;;;;;;;11.53;100.00;95553.47;5053871;28;20807;-76
2021/10/10 09:16:09;;;;;;;8.73;7.83;;;;;;;11.47;100.00;95549.53;5071639;28;20967;-77
2021/10/10 09:18:39;;;;;;;15.30;13.37;;;;;;;11.47;100.00;95552.16;5071682;27;20451;-76
2021/10/10 09:21:22;;;;;;;18.23;11.90;;;;;;;11.52;100.00;95543.91;5072008;27;20450;-77
2021/10/10 09:23:51;;;;;;;10.00;8.73;;;;;;;11.52;100.00;95546.53;5074864;27;20452;-77
2021/10/10 09:26:18;;;;;;;12.50;10.23;;;;;;;11.54;100.00;95544.63;5056870;27;20447;-77
2021/10/10 09:28:46;;;;;;;6.93;5.73;;;;;;;11.52;100.00;95546.53;5091857;27;20454;-76
2021/10/10 09:31:14;;;;;;;5.33;3.70;;;;;;;11.37;100.00;95550.38;5091995;27;20440;-76
2021/10/10 09:33:44;;;;;;;4.10;3.70;;;;;;;11.34;100.00;95547.97;5091701;28;20441;-76
2021/10/10 09:36:17;;;;;;;7.60;3.97;;;;;;;11.22;100.00;95551.53;5091844;27;20503;-76
2021/10/10 09:38:51;;;;;;;2.53;2.33;;;;;;;11.26;100.00;95547.72;5091821;28;20846;-76
2021/10/10 09:41:26;;;;;;;3.10;2.90;;;;;;;11.16;100.00;95545.81;5091853;27;20960;-76
2021/10/10 09:44:09;;;;;;;9.40;6.67;;;;;;;11.10;100.00;95541.03;5091580;28;20448;-76
2021/10/10 09:46:40;;;;;;;10.00;7.13;;;;;;;10.92;100.00;95541.59;5090874;28;20444;-76
2021/10/10 09:49:26;;;;;;;4.57;3.90;;;;;;;11.02;100.00;95540.78;5051441;28;20529;-76
2021/10/10 09:51:53;;;;;;;7.20;6.27;;;;;;;11.05;100.00;95542.34;5051676;28;20457;-76
2021/10/10 09:54:22;;;;;;;7.43;4.70;;;;;;;10.98;100.00;95546.34;5080879;27;20450;-77
2021/10/10 09:57:06;;;;;;;5.60;4.60;;;;;;;10.89;100.00;95537.41;5051199;28;20488;-76
2021/10/10 09:59:33;;;;;;;3.70;3.17;;;;;;;10.89;100.00;95536.56;5091154;27;20450;-76
2021/10/10 10:02:00;;;;;;;8.67;5.50;;;;;;;10.83;100.00;95537.88;5071082;28;20450;-76
2021/10/10 10:04:28;;;;;;;5.10;3.87;;;;;;;10.90;100.00;95539.06;5118661;27;20512;-76
2021/10/10 10:06:55;;;;;;;3.93;3.53;;;;;;;10.84;100.00;95534.28;5168630;27;20448;-76
2021/10/10 10:09:24;;;;;;;6.10;5.37;;;;;;;10.81;100.00;95545.03;5110906;27;20446;-76
2021/10/10 10:11:51;;;;;;;12.40;5.70;;;;;;;10.69;100.00;95536.25;5070415;28;20445;-76
2021/10/10 10:14:19;;;;;;;7.27;5.10;;;;;;;10.83;100.00;95535.25;5070425;28;20448;-76
2021/10/10 10:16:48;;;;;;;8.30;6.60;;;;;;;10.77;100.00;95539.19;5070433;28;20477;-76
2021/10/10 10:19:17;;;;;;;3.60;3.13;;;;;;;10.66;100.00;95540.91;5070272;28;20469;-77
2021/10/10 10:21:45;;;;;;;5.67;4.10;;;;;;;10.58;100.00;95538.03;5070826;27;20524;-76
2021/10/10 10:24:13;;;;;;;6.50;4.80;;;;;;;10.68;100.00;95544.25;5070421;28;20448;-77
2021/10/10 10:26:43;;;;;;;4.07;3.67;;;;;;;10.73;100.00;95540.38;5035758;28;20464;-76
2021/10/10 10:29:15;;;;;;;3.33;3.00;;;;;;;10.85;100.00;95538.59;5144781;27;20807;-76
2021/10/10 10:31:45;;;;;;;4.87;3.80;;;;;;;11.03;100.00;95545.09;5151794;27;20518;-76
2021/10/10 10:34:20;;;;;;;6.57;4.53;;;;;;;11.13;100.00;95556.56;5070391;28;20445;-77
2021/10/10 10:36:52;;;;;;;6.30;5.00;;;;;;;11.17;100.00;95555.34;5035013;28;20497;-77
2021/10/10 10:39:42;;;;;;;6.70;5.00;;;;;;;11.32;100.00;95544.66;5069860;27;20660;-77
2021/10/10 10:42:12;;;;;;;5.17;4.40;;;;;;;11.41;100.00;95543.91;5121813;27;20436;-77
2021/10/10 10:44:42;;;;;;;6.57;5.50;;;;;;;11.49;100.00;95545.00;5069869;28;20448;-77
2021/10/10 10:47:12;;;;;;;13.23;8.67;;;;;;;11.56;100.00;95542.72;5070271;27;20472;-77
2021/10/10 10:50:00;;;;;;;11.60;6.33;;;;;;;11.63;100.00;95543.09;5070127;27;20473;-77
2021/10/10 10:52:30;;;;;;;6.30;5.60;;;;;;;11.63;100.00;95537.84;5090712;28;20460;-77
2021/10/10 10:54:59;;;;;;;13.23;11.90;;;;;;;11.72;100.00;95547.63;5090674;28;20448;-77
2021/10/10 10:57:35;;;;;;;8.00;7.20;;;;;;;11.79;100.00;95543.56;5071678;28;20477;-77
2021/10/10 11:00:06;;;;;;;9.13;7.97;;;;;;;11.83;100.00;95536.28;5070766;28;20443;-77
2021/10/10 11:02:54;;;;;;;10.57;6.47;;;;;;;11.75;100.00;95537.69;5070625;28;20528;-77
2021/10/10 11:05:32;;;;;;;6.10;5.07;;;;;;;11.87;100.00;95535.09;5070552;28;20449;-77
2021/10/10 11:08:00;;;;;;;5.03;4.53;;;;;;;11.84;100.00;95536.16;5070477;28;20433;-77
2021/10/10 11:10:28;;;;;;;5.27;4.77;;;;;;;11.84;100.00;95536.16;5070507;28;20437;-78
2021/10/10 11:13:26;;;;;;;5.30;4.03;;;;;;;11.80;100.00;95539.97;5069776;28;20452;-77
2021/10/10 11:15:54;;;;;;;15.50;7.30;;;;;;;11.87;100.00;95529.84;5069955;28;20846;-76
2021/10/10 11:18:23;;;;;;;7.50;5.43;;;;;;;11.77;100.00;95521.78;5070243;28;20448;-76
2021/10/10 11:20:53;;;;;;;6.40;4.90;;;;;;;11.90;100.00;95516.44;5070071;28;20433;-77
2021/10/10 11:23:20;;;;;;;8.20;6.40;;;;;;;11.78;100.00;95505.91;5070224;28;20454;-78
2021/10/10 11:25:49;;;;;;;10.63;5.50;;;;;;;11.53;100.00;95516.66;5070061;28;20805;-77
2021/10/10 11:28:18;;;;;;;5.00;4.50;;;;;;;11.55;100.00;95520.00;5069525;28;20445;-77
2021/10/10 11:30:45;;;;;;;7.50;6.43;;;;;;;11.64;100.00;95519.31;5049764;28;20442;-77
2021/10/10 11:33:13;;;;;;;6.50;5.90;;;;;;;11.69;100.00;95517.16;5049500;28;20446;-77
2021/10/10 11:35:44;;;;;;;4.47;4.07;;;;;;;11.76;100.00;95515.69;5049382;28;20945;-77